Time;durP1;ratioP1;P1;durP2;ratioP2;P2;SDS_P1;SDS_P2;PMS_P1;PMS_P2;Temp;Humidity;BMP_temperature;BMP_pressure;BME280_temperature;BME280_humidity;BME280_pressure;Samples;Min_cycle;Max_cycle;Signal;HPM_P1;HPM_P2
2022/04/18 04:00:15;;;;;;;6.20;5.35;;;4.10;99.90;;;;;;5995321;23;20168;31
2022/04/18 04:02:43;;;;;;;5.93;5.32;;;4.10;99.90;;;;;;4942897;28;20634;-70
2022/04/18 04:05:10;;;;;;;5.80;5.25;;;4.10;99.90;;;;;;4952338;28;20225;-71
2022/04/18 04:07:37;;;;;;;6.10;5.13;;;4.10;99.90;;;;;;4952919;28;20212;-70
2022/04/18 04:10:05;;;;;;;8.98;6.07;;;4.10;99.90;;;;;;4952376;28;20539;-70
2022/04/18 04:12:31;;;;;;;6.18;5.45;;;4.00;99.90;;;;;;4952232;28;20236;-70
2022/04/18 04:14:58;;;;;;;5.82;5.53;;;4.00;99.90;;;;;;4950826;28;20212;-70
2022/04/18 04:17:26;;;;;;;7.57;6.75;;;4.00;99.90;;;;;;4952598;28;20584;-70
2022/04/18 04:19:53;;;;;;;6.30;5.70;;;4.00;99.90;;;;;;4941754;28;20624;-69
2022/04/18 04:22:20;;;;;;;6.07;5.57;;;4.00;99.90;;;;;;4933545;29;20230;-70
2022/04/18 04:24:46;;;;;;;6.35;5.72;;;4.00;99.90;;;;;;4952443;29;20225;-71
2022/04/18 04:27:13;;;;;;;6.82;6.10;;;4.00;99.90;;;;;;4953136;23;20289;-70
2022/04/18 04:29:40;;;;;;;6.82;5.78;;;4.00;99.90;;;;;;4943676;29;20301;-68
2022/04/18 04:32:07;;;;;;;6.65;5.50;;;4.00;99.90;;;;;;4946576;28;20202;-68
2022/04/18 04:34:35;;;;;;;5.88;4.93;;;4.00;99.90;;;;;;4942109;28;20569;-68
2022/04/18 04:37:02;;;;;;;5.50;5.10;;;4.00;99.90;;;;;;4932908;29;20277;-66
2022/04/18 04:39:28;;;;;;;5.90;5.50;;;4.00;99.90;;;;;;4932547;29;20210;-66
2022/04/18 04:41:55;;;;;;;5.68;5.28;;;4.00;99.90;;;;;;4932649;29;20209;-66
2022/04/18 04:44:22;;;;;;;6.22;5.65;;;4.00;99.90;;;;;;4932857;29;20725;-67
2022/04/18 04:46:49;;;;;;;5.75;5.22;;;4.10;99.90;;;;;;4932898;29;20667;-66
2022/04/18 04:49:15;;;;;;;5.70;5.20;;;4.30;99.90;;;;;;4936311;29;20198;-69
2022/04/18 04:51:43;;;;;;;6.88;6.30;;;4.60;99.90;;;;;;4930577;29;20213;-67
2022/04/18 04:54:10;;;;;;;5.90;5.40;;;5.00;99.90;;;;;;4920749;29;20206;-68
2022/04/18 04:56:37;;;;;;;6.03;5.45;;;5.50;99.90;;;;;;4933330;29;20226;-67
2022/04/18 04:59:04;;;;;;;10.00;5.75;;;5.70;99.90;;;;;;4936346;29;20213;-67
2022/04/18 05:01:30;;;;;;;6.00;5.53;;;6.00;99.90;;;;;;4935353;29;20316;-68
2022/04/18 05:03:57;;;;;;;5.82;5.32;;;6.00;99.90;;;;;;4935988;29;20216;-67
2022/04/18 05:06:24;;;;;;;6.70;5.53;;;5.90;99.90;;;;;;4936211;29;20237;-67
2022/04/18 05:08:52;;;;;;;5.70;5.25;;;6.00;99.90;;;;;;4936428;29;20670;-68
2022/04/18 05:11:18;;;;;;;5.22;4.93;;;6.10;99.90;;;;;;4935504;29;20248;-68
2022/04/18 05:13:45;;;;;;;6.88;6.18;;;6.10;99.90;;;;;;4936803;29;20218;-68
2022/04/18 05:16:12;;;;;;;6.57;5.93;;;6.10;99.90;;;;;;4935798;29;20648;-68
2022/04/18 05:18:39;;;;;;;7.97;6.22;;;6.10;99.90;;;;;;4917109;29;20215;-68
2022/04/18 05:21:05;;;;;;;5.40;4.90;;;6.10;99.90;;;;;;4935067;29;20221;-67
2022/04/18 05:23:32;;;;;;;5.55;5.05;;;6.20;99.90;;;;;;4935853;29;20213;-67
2022/04/18 05:26:00;;;;;;;6.38;5.40;;;6.40;99.90;;;;;;4935946;29;20233;-67
2022/04/18 05:28:27;;;;;;;5.40;5.10;;;6.40;99.90;;;;;;4936292;29;20205;-68
2022/04/18 05:30:54;;;;;;;5.22;4.70;;;6.40;99.90;;;;;;4934113;29;20628;-68
2022/04/18 05:33:21;;;;;;;5.50;5.00;;;6.40;99.90;;;;;;4926490;29;20721;-67
2022/04/18 05:35:48;;;;;;;5.40;4.95;;;6.40;99.90;;;;;;4918455;29;20202;-67
2022/04/18 05:38:14;;;;;;;6.97;6.40;;;6.50;99.90;;;;;;4935676;29;20210;-67
2022/04/18 05:40:41;;;;;;;6.28;5.85;;;6.60;99.90;;;;;;4932528;29;20739;-68
2022/04/18 05:43:09;;;;;;;5.07;4.57;;;6.70;99.90;;;;;;4918986;29;20640;-67
2022/04/18 05:45:38;;;;;;;6.00;5.50;;;6.80;99.90;;;;;;4930967;29;20229;-67
2022/04/18 05:48:05;;;;;;;5.80;5.30;;;6.90;99.90;;;;;;4935091;29;20305;-68
2022/04/18 05:50:32;;;;;;;4.93;4.63;;;7.10;99.90;;;;;;4935149;29;20575;-67
2022/04/18 05:52:58;;;;;;;5.68;5.07;;;7.40;99.90;;;;;;4935809;29;20214;-67
2022/04/18 05:55:25;;;;;;;6.95;5.80;;;7.60;99.90;;;;;;4935505;29;20639;-68
2022/04/18 05:57:52;;;;;;;6.40;5.85;;;7.90;99.90;;;;;;4935303;29;20701;-68
2022/04/18 06:00:21;;;;;;;6.70;6.20;;;8.10;99.90;;;;;;4932943;29;20285;-67
2022/04/18 06:02:47;;;;;;;6.57;6.07;;;8.40;99.90;;;;;;4933334;29;20213;-68
2022/04/18 06:05:14;;;;;;;6.13;5.60;;;8.70;99.90;;;;;;4934724;29;20253;-67
2022/04/18 06:07:42;;;;;;;6.30;5.70;;;9.10;99.90;;;;;;4934979;29;20261;-67
2022/04/18 06:10:10;;;;;;;7.17;6.70;;;9.70;99.90;;;;;;4934665;29;20469;-68
2022/04/18 06:12:37;;;;;;;6.73;6.30;;;10.10;99.90;;;;;;4934984;29;20470;-67
2022/04/18 06:15:03;;;;;;;7.33;6.50;;;10.30;99.90;;;;;;4931500;29;20489;-67
2022/04/18 06:17:31;;;;;;;6.33;5.93;;;10.20;99.90;;;;;;4929408;29;20541;-67
2022/04/18 06:19:58;;;;;;;7.73;7.13;;;9.90;99.90;;;;;;4933976;29;20473;-66
2022/04/18 06:22:25;;;;;;;8.43;7.63;;;9.70;99.90;;;;;;4935319;29;20493;-67
2022/04/18 06:24:51;;;;;;;7.83;6.53;;;9.60;99.90;;;;;;4934700;29;20457;-67
2022/04/18 06:27:18;;;;;;;7.13;6.53;;;9.30;99.90;;;;;;4934667;29;20544;-68
2022/04/18 06:29:45;;;;;;;6.30;5.88;;;9.20;99.90;;;;;;4934334;29;20465;-67
2022/04/18 06:32:11;;;;;;;7.30;6.60;;;9.10;99.90;;;;;;4934404;29;20209;-66
2022/04/18 06:34:39;;;;;;;7.38;6.78;;;9.00;99.90;;;;;;4933701;29;20608;-67
2022/04/18 06:37:06;;;;;;;9.00;7.00;;;9.00;99.90;;;;;;4933610;29;20234;-68
2022/04/18 06:39:33;;;;;;;5.97;5.55;;;9.00;99.90;;;;;;4932635;29;20217;-68
2022/04/18 06:42:00;;;;;;;8.63;7.25;;;8.90;99.90;;;;;;4934079;29;20205;-67
2022/04/18 06:44:27;;;;;;;6.82;6.30;;;9.00;99.90;;;;;;4934291;29;20305;-67
2022/04/18 06:46:53;;;;;;;14.60;13.00;;;9.00;99.90;;;;;;4933340;29;20598;-67
2022/04/18 06:49:20;;;;;;;13.38;10.95;;;9.00;99.90;;;;;;4933289;29;20210;-67
2022/04/18 06:51:48;;;;;;;6.95;6.35;;;9.00;99.90;;;;;;4927780;29;20258;-68
2022/04/18 06:54:14;;;;;;;7.38;6.20;;;9.00;99.90;;;;;;4921887;29;20206;-67
2022/04/18 06:56:58;;;;;;;5.93;5.32;;;9.00;99.90;;;;;;4934026;29;20230;-67
2022/04/18 06:59:26;;;;;;;6.25;5.70;;;9.10;99.90;;;;;;4934194;29;20621;-67
2022/04/18 07:01:52;;;;;;;8.95;7.28;;;9.20;99.90;;;;;;4928511;29;20213;-67
2022/04/18 07:04:19;;;;;;;6.38;5.40;;;9.30;99.90;;;;;;4930786;29;20531;-68
2022/04/18 07:06:47;;;;;;;8.00;6.15;;;9.40;99.90;;;;;;4933828;29;20251;-67
2022/04/18 07:09:14;;;;;;;6.72;6.10;;;9.40;99.90;;;;;;4934303;29;20301;-68
2022/04/18 07:11:42;;;;;;;6.55;6.03;;;9.50;99.90;;;;;;4933203;29;20671;-67
2022/04/18 07:14:09;;;;;;;7.00;6.30;;;9.50;99.90;;;;;;4934034;29;20210;-69
2022/04/18 07:16:35;;;;;;;6.82;6.40;;;9.50;99.90;;;;;;4933735;29;20233;-69
2022/04/18 07:19:02;;;;;;;6.95;6.35;;;9.50;99.90;;;;;;4933759;29;20588;-68
2022/04/18 07:21:29;;;;;;;6.88;6.15;;;9.50;99.90;;;;;;4933135;29;20217;-68
2022/04/18 07:23:57;;;;;;;7.00;6.30;;;9.70;99.90;;;;;;4926462;29;20282;-69
2022/04/18 07:26:23;;;;;;;7.90;5.93;;;9.70;99.90;;;;;;4916103;29;20334;-68
2022/04/18 07:28:50;;;;;;;6.55;5.80;;;9.70;99.90;;;;;;4933908;29;20213;-68
2022/04/18 07:31:17;;;;;;;5.70;5.20;;;9.80;99.90;;;;;;4932828;29;20616;-68
2022/04/18 07:33:43;;;;;;;5.40;5.00;;;9.90;99.90;;;;;;4927659;29;20214;-67
2022/04/18 07:36:10;;;;;;;7.10;6.53;;;10.10;99.90;;;;;;4929807;29;20594;-68
2022/04/18 07:38:52;;;;;;;6.40;5.90;;;10.10;99.90;;;;;;4933646;29;20284;-65
2022/04/18 07:41:22;;;;;;;6.63;6.05;;;10.20;99.90;;;;;;4931971;29;20236;-66
2022/04/18 07:43:50;;;;;;;5.95;4.30;;;10.30;99.90;;;;;;4932666;29;20229;-66
2022/04/18 07:46:17;;;;;;;6.70;6.10;;;10.20;99.90;;;;;;4932806;29;20524;-66
2022/04/18 07:48:45;;;;;;;6.43;5.75;;;10.40;99.90;;;;;;4932948;29;20210;-67
2022/04/18 07:53:55;;;;;;;7.32;5.22;;;10.60;99.90;;;;;;4919506;29;20224;-66
2022/04/18 07:56:23;;;;;;;5.32;4.88;;;10.70;99.90;;;;;;4924551;29;20235;-67
2022/04/18 07:58:51;;;;;;;7.22;5.07;;;10.90;99.90;;;;;;4914682;29;20214;-67
2022/04/18 08:01:18;;;;;;;4.47;4.07;;;11.00;99.90;;;;;;4916352;29;20288;-67
2022/04/18 08:03:45;;;;;;;8.35;5.95;;;11.20;99.90;;;;;;4913297;29;20220;-67
2022/04/18 08:06:12;;;;;;;4.60;4.07;;;11.20;99.90;;;;;;4926626;29;20222;-67
2022/04/18 08:08:39;;;;;;;5.72;5.15;;;11.30;99.90;;;;;;4933416;29;20210;-67
2022/04/18 08:11:07;;;;;;;5.57;5.07;;;11.50;99.90;;;;;;4933168;29;20213;-67
2022/04/18 08:13:35;;;;;;;8.43;5.20;;;11.60;99.90;;;;;;4931784;29;20206;-68
2022/04/18 08:16:02;;;;;;;7.38;5.50;;;11.70;99.90;;;;;;4930003;29;20237;-67
2022/04/18 08:18:28;;;;;;;5.47;4.97;;;11.80;99.90;;;;;;4922202;29;20245;-66
2022/04/18 08:20:55;;;;;;;8.30;6.38;;;11.80;99.90;;;;;;4928793;29;20583;-66
2022/04/18 08:23:22;;;;;;;5.03;4.65;;;12.00;99.90;;;;;;4935268;29;20661;-67
2022/04/18 08:25:48;;;;;;;5.83;5.33;;;12.00;99.90;;;;;;4935987;29;20229;-67
2022/04/18 08:28:15;;;;;;;7.47;6.20;;;12.10;99.90;;;;;;4936884;29;20495;-68
2022/04/18 08:30:43;;;;;;;6.78;6.15;;;12.10;99.90;;;;;;4933372;29;20297;-67
2022/04/18 08:33:10;;;;;;;7.15;5.18;;;12.10;99.90;;;;;;4930531;29;20233;-69
2022/04/18 08:35:36;;;;;;;8.05;5.93;;;12.20;99.90;;;;;;4929919;29;20225;-68
2022/04/18 08:38:03;;;;;;;6.15;5.65;;;12.30;99.90;;;;;;4934976;29;20214;-66
2022/04/18 08:40:30;;;;;;;3.63;3.42;;;12.40;99.90;;;;;;4927902;29;20214;-67
2022/04/18 08:42:57;;;;;;;8.02;5.25;;;12.50;99.90;;;;;;4934725;29;20261;-67
2022/04/18 08:45:26;;;;;;;6.43;5.82;;;12.60;99.90;;;;;;4928444;29;20258;-68
2022/04/18 08:53:28;;;;;;;9.47;6.10;;;12.80;99.90;;;;;;4936254;29;20209;-67
2022/04/18 08:55:55;;;;;;;7.10;6.33;;;12.70;99.90;;;;;;4936310;29;20503;-68
2022/04/18 08:58:23;;;;;;;6.90;5.90;;;12.70;99.90;;;;;;4935250;29;20457;-68
2022/04/18 09:00:50;;;;;;;6.37;5.83;;;12.70;99.90;;;;;;4935941;29;20471;-67
2022/04/18 09:03:18;;;;;;;6.87;5.87;;;12.80;99.90;;;;;;4933736;29;20499;-68
2022/04/18 09:05:45;;;;;;;6.23;5.57;;;12.90;99.90;;;;;;4929443;29;20461;-68
2022/04/18 09:08:12;;;;;;;6.07;5.47;;;13.00;99.90;;;;;;4935144;29;20466;-68
2022/04/18 09:10:39;;;;;;;5.93;5.40;;;13.00;99.90;;;;;;4930379;29;20465;-68
2022/04/18 09:13:08;;;;;;;6.67;6.07;;;13.20;99.90;;;;;;4935035;29;20461;-66
2022/04/18 09:15:39;;;;;;;6.90;6.20;;;13.30;99.90;;;;;;4927912;29;20469;-67
2022/04/18 09:18:12;;;;;;;6.83;6.10;;;13.30;99.90;;;;;;4926423;29;21883;-67
2022/04/18 09:20:47;;;;;;;6.77;6.13;;;13.30;99.90;;;;;;4932573;29;20851;-67
2022/04/18 09:23:26;;;;;;;6.37;5.77;;;13.30;99.90;;;;;;4924626;29;20465;-67
2022/04/18 09:25:55;;;;;;;5.43;4.90;;;13.40;99.90;;;;;;4932991;29;20486;-68
2022/04/18 09:28:26;;;;;;;5.10;4.70;;;13.50;99.90;;;;;;4929128;29;21018;-68
2022/04/18 09:31:02;;;;;;;6.23;5.70;;;13.60;99.90;;;;;;4933595;29;20473;-68
2022/04/18 09:33:30;;;;;;;4.67;4.37;;;13.60;99.90;;;;;;4924923;29;20469;-68
2022/04/18 09:36:10;;;;;;;5.83;5.17;;;13.60;99.90;;;;;;4927820;29;20498;-68
2022/04/18 09:38:38;;;;;;;5.43;4.93;;;13.70;99.90;;;;;;4934764;29;20480;-68
2022/04/18 09:41:06;;;;;;;4.67;4.20;;;13.70;98.90;;;;;;4928181;29;20474;-69
2022/04/18 09:43:40;;;;;;;5.50;5.00;;;13.70;98.40;;;;;;4930714;29;20473;-68
2022/04/18 09:46:08;;;;;;;6.40;5.50;;;13.70;97.70;;;;;;4931530;29;20768;-69
2022/04/18 09:48:35;;;;;;;4.60;4.23;;;13.60;97.10;;;;;;4933825;29;20477;-68
2022/04/18 09:51:09;;;;;;;4.73;4.23;;;13.60;96.20;;;;;;4933685;29;20465;-68
2022/04/18 09:53:38;;;;;;;3.40;3.10;;;13.70;96.20;;;;;;4931866;29;20512;-69
2022/04/18 09:56:06;;;;;;;4.00;3.70;;;13.70;96.20;;;;;;4924097;29;20589;-68
2022/04/18 09:58:34;;;;;;;3.90;3.60;;;14.00;95.10;;;;;;4933593;29;20526;-67
2022/04/18 10:01:03;;;;;;;4.80;4.40;;;14.00;93.00;;;;;;4929823;29;20477;-67
2022/04/18 10:03:30;;;;;;;4.03;3.53;;;14.00;92.10;;;;;;4932357;29;20540;-70
2022/04/18 10:05:58;;;;;;;4.03;3.80;;;14.00;92.70;;;;;;4930767;29;20493;-70
2022/04/18 10:08:27;;;;;;;4.07;3.60;;;14.20;93.00;;;;;;4933911;29;20497;-67
2022/04/18 10:10:56;;;;;;;4.20;3.90;;;14.40;91.40;;;;;;4932321;29;20497;-68
2022/04/18 10:13:22;;;;;;;3.60;3.30;;;14.30;91.60;;;;;;4933190;29;20998;-69
2022/04/18 10:15:51;;;;;;;3.97;3.70;;;14.30;91.70;;;;;;4934584;29;20465;-69
2022/04/18 10:18:19;;;;;;;4.23;3.10;;;14.20;91.80;;;;;;4929706;29;20500;-70
2022/04/18 10:21:04;;;;;;;3.10;2.90;;;14.20;90.90;;;;;;4931842;29;20470;-68
2022/04/18 10:24:01;;;;;;;3.40;3.17;;;14.10;91.00;;;;;;4923677;29;20560;-68
2022/04/18 10:27:01;;;;;;;3.93;3.63;;;14.20;91.20;;;;;;4929069;29;20946;-68
2022/04/18 10:29:31;;;;;;;4.00;3.60;;;14.50;91.20;;;;;;4930139;29;20476;-67
2022/04/18 10:32:03;;;;;;;2.97;2.77;;;14.60;90.30;;;;;;4922003;29;20463;-69
2022/04/18 10:34:31;;;;;;;2.57;2.47;;;14.60;88.60;;;;;;4930851;29;20477;-68
2022/04/18 10:37:01;;;;;;;3.30;2.93;;;14.70;85.40;;;;;;4931860;29;20498;-68
2022/04/18 10:39:35;;;;;;;3.80;2.60;;;14.80;86.80;;;;;;4933286;29;20477;-69
2022/04/18 10:42:21;;;;;;;3.00;2.73;;;14.90;84.60;;;;;;4932549;29;20473;-69
2022/04/18 10:45:16;;;;;;;4.10;3.00;;;14.80;83.60;;;;;;4926332;29;20947;-69
2022/04/18 10:48:10;;;;;;;2.60;2.50;;;14.80;84.20;;;;;;4923018;29;20489;-68
2022/04/18 10:50:39;;;;;;;2.90;2.60;;;14.80;85.20;;;;;;4930920;29;20985;-68
2022/04/18 10:53:18;;;;;;;4.10;3.20;;;14.90;86.40;;;;;;4933510;29;20465;-69
2022/04/18 10:56:12;;;;;;;1.83;1.83;;;14.90;84.80;;;;;;4923541;29;20465;-69
2022/04/18 10:58:42;;;;;;;3.40;3.10;;;14.90;85.20;;;;;;4926222;29;20517;-68
2022/04/18 11:01:10;;;;;;;2.37;2.00;;;14.90;84.10;;;;;;4927949;29;20474;-68
2022/04/18 11:04:01;;;;;;;3.37;3.00;;;14.90;83.20;;;;;;4922397;29;20532;-67
2022/04/18 11:06:51;;;;;;;3.00;2.60;;;15.00;84.80;;;;;;4914418;29;20481;-68
2022/04/18 11:09:21;;;;;;;2.77;2.63;;;15.00;82.90;;;;;;4929392;29;20497;-68
2022/04/18 11:11:53;;;;;;;3.00;2.80;;;14.90;83.10;;;;;;4928200;29;20908;-68
2022/04/18 11:14:22;;;;;;;2.70;2.50;;;14.90;83.90;;;;;;4932647;29;20977;-68
2022/04/18 11:16:55;;;;;;;2.53;2.43;;;15.20;82.60;;;;;;4931721;29;20496;-66
2022/04/18 11:19:24;;;;;;;2.80;2.70;;;15.40;83.60;;;;;;4929902;29;20485;-68
2022/04/18 11:22:17;;;;;;;3.30;3.10;;;15.40;83.40;;;;;;4928563;29;20552;-67
2022/04/18 11:24:55;;;;;;;2.90;2.70;;;15.40;83.20;;;;;;4929465;29;20473;-68
2022/04/18 11:27:24;;;;;;;3.23;3.03;;;15.40;83.90;;;;;;4931703;29;20547;-68
2022/04/18 11:29:53;;;;;;;3.63;2.87;;;15.20;83.40;;;;;;4932121;29;20529;-68
2022/04/18 11:32:23;;;;;;;3.10;2.80;;;15.10;83.90;;;;;;4929396;29;20472;-67
2022/04/18 11:34:51;;;;;;;4.93;2.70;;;15.10;85.20;;;;;;4926237;29;20218;-67
2022/04/18 11:37:26;;;;;;;2.53;2.33;;;15.30;87.10;;;;;;4931399;29;20509;-67
2022/04/18 11:39:55;;;;;;;2.57;2.47;;;15.50;83.30;;;;;;4930922;29;20473;-67
2022/04/18 11:42:23;;;;;;;3.57;3.27;;;15.50;83.40;;;;;;4924516;29;20501;-68
2022/04/18 11:44:52;;;;;;;2.50;2.50;;;15.50;85.00;;;;;;4931874;29;20951;-68
2022/04/18 11:47:21;;;;;;;2.67;2.47;;;15.50;86.00;;;;;;4931538;29;20489;-68
2022/04/18 11:49:50;;;;;;;3.27;3.07;;;15.50;86.10;;;;;;4931760;29;20469;-67
2022/04/18 11:52:21;;;;;;;4.03;3.20;;;15.60;86.30;;;;;;4930450;29;22175;-68
2022/04/18 11:55:11;;;;;;;2.70;2.50;;;15.50;84.40;;;;;;4927111;29;20484;-67
2022/04/18 11:57:39;;;;;;;2.53;2.43;;;15.40;84.80;;;;;;4925794;29;20573;-67
2022/04/18 12:00:08;;;;;;;2.27;2.17;;;15.40;86.20;;;;;;4923446;29;20529;-67
2022/04/18 12:08:06;;;;;;;3.07;2.50;;;15.60;86.60;;;;;;4924420;29;20550;-67
2022/04/18 12:10:35;;;;;;;2.17;2.07;;;15.70;84.90;;;;;;4924734;29;20469;-68
2022/04/18 12:13:06;;;;;;;2.57;2.47;;;15.70;86.40;;;;;;4933921;29;20553;-68
2022/04/18 12:15:34;;;;;;;2.47;2.37;;;15.70;85.60;;;;;;4924768;29;20552;-68
2022/04/18 12:18:10;;;;;;;2.40;2.30;;;15.60;85.50;;;;;;4931087;29;20494;-67
2022/04/18 12:20:41;;;;;;;2.03;2.03;;;15.60;86.30;;;;;;4929458;29;20481;-67
2022/04/18 12:23:09;;;;;;;2.20;2.20;;;15.70;86.80;;;;;;4928833;29;20549;-68
2022/04/18 12:25:36;;;;;;;2.10;2.00;;;15.70;84.90;;;;;;4931144;29;20475;-68
2022/04/18 12:28:06;;;;;;;2.10;2.10;;;15.70;84.10;;;;;;4927321;29;21025;-68
2022/04/18 12:30:33;;;;;;;2.20;2.10;;;15.60;84.70;;;;;;4929749;29;20473;-68
2022/04/18 12:33:11;;;;;;;2.13;1.87;;;15.70;85.80;;;;;;4922283;29;20477;-67
2022/04/18 12:35:39;;;;;;;2.27;2.27;;;15.80;84.70;;;;;;4932497;29;20473;-69
2022/04/18 12:38:07;;;;;;;2.00;1.90;;;15.90;84.60;;;;;;4931141;29;20489;-68
2022/04/18 12:40:36;;;;;;;2.30;2.20;;;15.90;85.50;;;;;;4931060;29;20835;-73
2022/04/18 12:43:08;;;;;;;2.63;2.53;;;16.00;85.60;;;;;;4932305;29;20462;-71
2022/04/18 12:45:47;;;;;;;2.00;1.90;;;16.20;85.60;;;;;;4929889;29;20473;-69
2022/04/18 12:48:14;;;;;;;2.17;2.03;;;16.20;84.20;;;;;;4929541;29;20647;-66
2022/04/18 12:50:41;;;;;;;2.27;1.80;;;16.20;84.00;;;;;;4930194;29;20504;-68
2022/04/18 12:53:08;;;;;;;1.80;1.80;;;16.20;83.30;;;;;;4932259;29;20510;-69
2022/04/18 12:55:35;;;;;;;2.00;1.90;;;16.10;83.60;;;;;;4931280;29;20526;-68
2022/04/18 12:58:02;;;;;;;2.23;2.13;;;16.10;85.00;;;;;;4933097;29;20501;-68
2022/04/18 13:00:36;;;;;;;2.00;2.00;;;16.10;84.70;;;;;;4931377;29;20474;-69
2022/04/18 13:03:04;;;;;;;2.20;2.10;;;16.10;85.20;;;;;;4933274;29;20469;-68
2022/04/18 13:05:33;;;;;;;2.80;2.37;;;16.20;86.50;;;;;;4931434;29;20488;-69
2022/04/18 13:08:02;;;;;;;2.17;2.03;;;16.10;84.90;;;;;;4927166;29;20478;-67
2022/04/18 13:10:30;;;;;;;2.80;2.70;;;16.10;84.50;;;;;;4931644;29;20474;-69
2022/04/18 13:13:04;;;;;;;2.30;2.17;;;16.10;85.80;;;;;;4931134;29;20838;-68
2022/04/18 13:15:32;;;;;;;2.53;2.43;;;16.10;85.00;;;;;;4933191;29;20946;-69
2022/04/18 13:18:05;;;;;;;2.27;2.27;;;16.10;87.00;;;;;;4927594;29;20490;-67
2022/04/18 13:20:33;;;;;;;3.27;3.07;;;16.10;86.50;;;;;;4926986;29;20556;-68
2022/04/18 13:23:00;;;;;;;2.17;2.07;;;16.10;85.40;;;;;;4923540;29;20560;-63
2022/04/18 13:25:27;;;;;;;2.27;2.17;;;16.00;84.90;;;;;;4936249;29;20469;-64
2022/04/18 13:27:55;;;;;;;2.63;2.43;;;16.00;86.80;;;;;;4934402;29;20552;-68
2022/04/18 13:30:23;;;;;;;2.50;2.40;;;16.00;87.00;;;;;;4928108;29;20565;-68
2022/04/18 13:32:50;;;;;;;2.50;2.40;;;16.00;85.40;;;;;;4927723;29;20837;-68
2022/04/18 13:35:18;;;;;;;3.40;2.70;;;16.00;84.60;;;;;;4933181;29;20474;-68
2022/04/18 13:37:45;;;;;;;2.30;2.20;;;16.00;86.10;;;;;;4930802;29;20490;-70
2022/04/18 13:40:13;;;;;;;2.53;2.43;;;16.00;86.20;;;;;;4931293;29;20572;-68
2022/04/18 13:42:39;;;;;;;2.97;2.77;;;16.10;84.70;;;;;;4935426;29;20481;-68
2022/04/18 13:45:09;;;;;;;2.33;2.20;;;16.10;84.70;;;;;;4935701;29;20470;-68
2022/04/18 13:47:37;;;;;;;2.20;2.20;;;16.20;85.50;;;;;;4931944;29;20921;-67
2022/04/18 13:50:04;;;;;;;2.50;2.30;;;16.20;83.50;;;;;;4928807;29;20476;-67
2022/04/18 13:52:32;;;;;;;2.50;2.40;;;16.10;83.60;;;;;;4933265;29;20973;-66
2022/04/18 13:54:59;;;;;;;2.67;2.57;;;16.20;84.00;;;;;;4922413;29;20477;-67
2022/04/18 13:57:25;;;;;;;3.90;2.73;;;16.20;83.80;;;;;;4927135;29;20530;-67
2022/04/18 13:59:52;;;;;;;1.70;1.70;;;16.10;83.80;;;;;;4931060;29;20473;-68
2022/04/18 14:02:19;;;;;;;2.40;2.20;;;16.10;83.50;;;;;;4933897;29;20875;-67
2022/04/18 14:04:46;;;;;;;2.90;2.50;;;16.20;84.20;;;;;;4933224;29;20586;-68
2022/04/18 14:07:12;;;;;;;2.20;2.00;;;16.30;84.60;;;;;;4934934;29;20489;-68
2022/04/18 14:09:41;;;;;;;2.40;2.30;;;16.40;84.70;;;;;;4926182;29;20494;-67
2022/04/18 14:12:08;;;;;;;2.40;2.30;;;16.50;84.40;;;;;;4934296;29;20470;-68
2022/04/18 14:20:23;;;;;;;2.70;2.50;;;16.30;83.40;;;;;;4930031;29;20487;-68
2022/04/18 14:22:51;;;;;;;3.10;2.80;;;16.40;82.80;;;;;;4929895;29;20478;-68
2022/04/18 14:25:20;;;;;;;2.60;2.50;;;16.20;82.90;;;;;;4925382;29;20486;-68
2022/04/18 14:27:47;;;;;;;3.43;3.13;;;16.20;83.30;;;;;;4932562;29;20505;-68
2022/04/18 14:30:14;;;;;;;1.83;1.70;;;16.20;84.60;;;;;;4930964;29;20548;-68
2022/04/18 14:32:42;;;;;;;2.80;2.70;;;16.30;83.50;;;;;;4926815;29;20529;-67
2022/04/18 14:35:10;;;;;;;2.27;2.27;;;16.30;83.10;;;;;;4925116;29;20470;-67
2022/04/18 14:37:38;;;;;;;2.43;2.37;;;16.40;83.60;;;;;;4934123;29;20970;-69
2022/04/18 14:40:05;;;;;;;2.20;2.20;;;16.30;84.00;;;;;;4931252;29;20864;-67
2022/04/18 14:42:34;;;;;;;2.03;2.03;;;16.30;84.00;;;;;;4932201;29;20513;-68
2022/04/18 14:45:01;;;;;;;2.73;2.63;;;16.30;83.30;;;;;;4933782;29;20855;-68
2022/04/18 14:47:27;;;;;;;2.77;2.67;;;16.40;83.70;;;;;;4931635;29;20839;-68
2022/04/18 14:49:54;;;;;;;2.80;2.67;;;16.30;82.50;;;;;;4927909;29;20466;-67
2022/04/18 14:52:22;;;;;;;2.40;2.30;;;16.40;83.20;;;;;;4932091;29;20834;-67
2022/04/18 14:54:49;;;;;;;3.40;2.23;;;16.30;82.50;;;;;;4929815;29;20485;-66
2022/04/18 14:57:16;;;;;;;2.40;2.30;;;16.30;82.90;;;;;;4930414;29;21010;-68
2022/04/18 14:59:46;;;;;;;1.97;1.90;;;16.30;82.60;;;;;;4920859;29;20541;-68
2022/04/18 15:02:12;;;;;;;2.90;2.63;;;16.30;83.90;;;;;;4927028;29;20568;-68
2022/04/18 15:04:39;;;;;;;2.37;2.23;;;16.40;83.20;;;;;;4923839;29;20781;-66
2022/04/18 15:07:06;;;;;;;2.43;2.33;;;16.40;82.90;;;;;;4932697;29;20481;-67
2022/04/18 15:09:32;;;;;;;3.07;2.90;;;16.40;81.50;;;;;;4925127;29;20919;-66
2022/04/18 15:11:59;;;;;;;2.40;2.30;;;16.30;81.80;;;;;;4926227;29;20863;-67
2022/04/18 15:14:26;;;;;;;2.37;2.17;;;16.30;81.40;;;;;;4933215;29;20528;-68
2022/04/18 15:16:54;;;;;;;2.83;2.67;;;16.40;82.60;;;;;;4932378;29;20497;-68
2022/04/18 15:19:21;;;;;;;2.50;2.30;;;16.40;81.40;;;;;;4921060;29;20494;-68
2022/04/18 15:21:48;;;;;;;1.80;1.73;;;16.30;83.00;;;;;;4926303;29;20814;-67
2022/04/18 15:24:15;;;;;;;2.30;2.20;;;16.40;83.00;;;;;;4923864;29;20942;-68
2022/04/18 15:26:42;;;;;;;2.40;2.30;;;16.40;82.60;;;;;;4928804;29;20502;-68
2022/04/18 15:29:09;;;;;;;2.30;2.20;;;16.40;82.80;;;;;;4930842;29;20469;-68
2022/04/18 15:34:22;;;;;;;2.30;2.20;;;16.40;82.20;;;;;;4928963;29;20974;-69
2022/04/18 15:36:49;;;;;;;3.53;2.60;;;16.40;81.20;;;;;;4932651;29;20497;-67
2022/04/18 15:39:16;;;;;;;2.00;2.00;;;16.40;81.00;;;;;;4924580;29;20493;-68
2022/04/18 15:41:44;;;;;;;2.30;2.07;;;16.40;80.60;;;;;;4931403;29;20583;-68
2022/04/18 15:44:12;;;;;;;1.70;1.70;;;16.40;80.50;;;;;;4928802;29;20537;-68
2022/04/18 15:46:39;;;;;;;2.17;2.07;;;16.30;80.20;;;;;;4925934;29;20997;-68
2022/04/18 15:49:06;;;;;;;1.87;1.87;;;16.40;80.80;;;;;;4923925;29;20482;-68
2022/04/18 15:51:34;;;;;;;2.30;2.20;;;16.30;79.20;;;;;;4927657;29;20469;-68
2022/04/18 15:54:01;;;;;;;1.67;1.57;;;16.30;80.00;;;;;;4925392;29;20474;-67
2022/04/18 15:56:27;;;;;;;1.73;1.63;;;16.30;79.70;;;;;;4930341;29;20498;-68
2022/04/18 15:59:00;;;;;;;1.50;1.50;;;16.30;79.40;;;;;;4927957;29;20536;-67
2022/04/18 16:01:27;;;;;;;1.50;1.50;;;16.40;79.10;;;;;;4931191;29;20474;-67
2022/04/18 16:03:54;;;;;;;1.50;1.50;;;16.50;78.40;;;;;;4931751;29;20477;-68
2022/04/18 16:06:20;;;;;;;2.03;1.93;;;16.40;78.50;;;;;;4931473;29;20830;-68
2022/04/18 16:08:48;;;;;;;2.27;2.17;;;16.40;81.10;;;;;;4931773;29;20474;-67
2022/04/18 16:11:15;;;;;;;1.73;1.67;;;16.40;81.70;;;;;;4928662;29;20469;-67
2022/04/18 16:13:42;;;;;;;1.93;1.83;;;16.40;81.20;;;;;;4930357;29;20474;-68
2022/04/18 16:16:10;;;;;;;2.83;2.63;;;16.40;81.60;;;;;;4931276;29;20497;-67
2022/04/18 16:18:37;;;;;;;2.93;2.60;;;16.30;82.20;;;;;;4924513;29;21086;-67
2022/04/18 16:21:03;;;;;;;2.23;2.13;;;16.30;82.90;;;;;;4922938;29;20516;-69
2022/04/18 16:23:30;;;;;;;1.80;1.70;;;16.40;82.00;;;;;;4924951;29;21199;-66
2022/04/18 16:25:58;;;;;;;2.03;1.93;;;16.40;80.60;;;;;;4934323;29;21073;-68
2022/04/18 16:28:25;;;;;;;1.87;1.87;;;16.40;80.70;;;;;;4932149;29;20473;-68
2022/04/18 16:33:36;;;;;;;1.40;1.40;;;16.40;80.80;;;;;;4930469;29;20608;-67
2022/04/18 16:36:03;;;;;;;2.10;2.00;;;16.40;81.40;;;;;;4930842;29;20486;-68
2022/04/18 16:38:29;;;;;;;1.80;1.70;;;16.40;81.00;;;;;;4929869;29;20540;-68
2022/04/18 16:46:37;;;;;;;1.80;1.70;;;16.30;82.00;;;;;;4930127;29;20513;-67
2022/04/18 16:49:05;;;;;;;1.13;1.13;;;16.30;80.60;;;;;;4935524;29;20470;-67
2022/04/18 16:51:35;;;;;;;1.20;1.20;;;16.20;80.50;;;;;;4934657;29;20457;-67
2022/04/18 16:54:01;;;;;;;1.00;0.83;;;16.10;80.40;;;;;;4935228;29;20616;-67
2022/04/18 16:56:29;;;;;;;1.23;1.23;;;16.10;80.30;;;;;;4936079;29;20563;-67
2022/04/18 16:58:56;;;;;;;1.30;1.30;;;16.10;81.30;;;;;;4942413;29;20493;-67
2022/04/18 17:01:23;;;;;;;1.50;1.50;;;16.00;81.40;;;;;;4937317;29;20876;-68
2022/04/18 17:03:49;;;;;;;1.10;1.10;;;16.00;82.40;;;;;;4941612;29;21140;-67
2022/04/18 17:06:16;;;;;;;1.37;1.37;;;15.90;82.70;;;;;;4926705;29;20975;-67
2022/04/18 17:08:43;;;;;;;1.23;1.23;;;15.80;83.10;;;;;;4935049;29;20462;-68
2022/04/18 17:11:09;;;;;;;1.07;1.07;;;15.70;82.80;;;;;;4934588;29;20469;-68
2022/04/18 17:13:37;;;;;;;1.00;1.00;;;15.60;82.80;;;;;;4934860;29;20477;-68
2022/04/18 17:16:06;;;;;;;1.50;1.50;;;15.60;83.30;;;;;;4933602;29;20548;-68
2022/04/18 17:18:32;;;;;;;1.63;1.53;;;15.50;84.60;;;;;;4927776;29;20485;-68
2022/04/18 17:20:59;;;;;;;1.37;1.37;;;15.50;84.40;;;;;;4919043;29;20553;-68
2022/04/18 17:23:26;;;;;;;1.70;1.67;;;15.40;84.40;;;;;;4930590;29;20474;-67
2022/04/18 17:25:54;;;;;;;1.10;1.10;;;15.40;85.00;;;;;;4927881;29;20954;-67
2022/04/18 17:28:20;;;;;;;1.60;1.50;;;15.30;85.70;;;;;;4931086;29;20484;-67